Terminal Aerodrome Forecast
Issued by NWS

Current Version | Previous Version | Text Only | Print | Product List | Glossary Off
Versions: 1 2 3 4 5 6 7 8 9 10 11 12 13 14 15

581
FTUS41 KPBZ 241735
TAFHLG
TAF
KHLG 241735Z 2418/2518 27008G16KT P6SM SCT060
     FM250100 26004KT P6SM FEW250
     FM250800 20003KT P6SM FEW250=

USA.gov is the U.S. government's official web portal to all federal, state and local government web resources and services.